UAL130 KATW-KORD
Flight info
| Callsign | UAL130 |
|---|---|
| Flight time | 0h 41m |
| Altitude | 30000 |
| Route | FAH KOHLL MADII7 |
| Aircraft | E175/M-SDE3GILORVW/S |
Departure
| Time | 2026-05-04 02:18 |
|---|---|
| Airport | Appleton International Airport (KATW) |
Arrival
| Time | 2026-05-04 02:59 |
|---|---|
| Airport | Chicago O'Hare International Airport (KORD) |
| Time | Latitude | Longitude | Altitude | Speed | Heading |
|---|---|---|---|---|---|
| 2026-05-04 02:14 | 44.26122 | -88.51495 | 881 ft | 5 kts | 290° |
| 2026-05-04 02:15 | 44.26134 | -88.51538 | 882 ft | 4 kts | 294° |
| 2026-05-04 02:15 | 44.26168 | -88.51571 | 883 ft | 11 kts | 358° |
| 2026-05-04 02:15 | 44.26270 | -88.51514 | 881 ft | 19 kts | 27° |
| 2026-05-04 02:15 | 44.26391 | -88.51431 | 882 ft | 20 kts | 25° |
| 2026-05-04 02:16 | 44.26524 | -88.51339 | 884 ft | 22 kts | 28° |
| 2026-05-04 02:16 | 44.26661 | -88.51248 | 886 ft | 23 kts | 24° |
| 2026-05-04 02:16 | 44.26798 | -88.51159 | 886 ft | 14 kts | 17° |
| 2026-05-04 02:16 | 44.26817 | -88.51179 | 886 ft | 4 kts | 290° |
| 2026-05-04 02:17 | 44.26832 | -88.51235 | 885 ft | 9 kts | 290° |
| 2026-05-04 02:17 | 44.26813 | -88.51312 | 884 ft | 9 kts | 208° |
| 2026-05-04 02:17 | 44.26626 | -88.51440 | 886 ft | 70 kts | 206° |
| 2026-05-04 02:17 | 44.25925 | -88.51915 | 907 ft | 149 kts | 205° |
| 2026-05-04 02:18 | 44.24879 | -88.52590 | 1558 ft | 178 kts | 208° |
| 2026-05-04 02:18 | 44.23691 | -88.53343 | 2498 ft | 205 kts | 211° |
| 2026-05-04 02:18 | 44.22229 | -88.54291 | 3147 ft | 258 kts | 210° |
| 2026-05-04 02:18 | 44.20479 | -88.55488 | 4015 ft | 298 kts | 212° |
| 2026-05-04 02:19 | 44.18660 | -88.56964 | 5381 ft | 296 kts | 216° |
| 2026-05-04 02:19 | 44.16954 | -88.58512 | 6381 ft | 293 kts | 218° |
| 2026-05-04 02:19 | 44.15298 | -88.60221 | 6769 ft | 302 kts | 221° |
| 2026-05-04 02:19 | 44.13504 | -88.61640 | 7785 ft | 298 kts | 202° |
| 2026-05-04 02:20 | 44.11452 | -88.61897 | 8791 ft | 300 kts | 176° |
| 2026-05-04 02:20 | 44.09487 | -88.60904 | 9583 ft | 307 kts | 149° |
| 2026-05-04 02:20 | 44.07917 | -88.58935 | 10188 ft | 313 kts | 134° |
| 2026-05-04 02:20 | 44.06392 | -88.56657 | 10503 ft | 328 kts | 134° |
| 2026-05-04 02:21 | 44.04816 | -88.54298 | 10922 ft | 338 kts | 132° |
| 2026-05-04 02:21 | 44.03505 | -88.51521 | 11232 ft | 350 kts | 117° |
| 2026-05-04 02:21 | 44.02369 | -88.48474 | 11601 ft | 360 kts | 118° |
| 2026-05-04 02:21 | 44.01166 | -88.45367 | 11991 ft | 369 kts | 118° |
| 2026-05-04 02:22 | 43.99940 | -88.42211 | 12476 ft | 374 kts | 118° |
| 2026-05-04 02:22 | 43.99114 | -88.40092 | 12817 ft | 377 kts | 118° |
| 2026-05-04 02:22 | 43.97859 | -88.36874 | 13377 ft | 381 kts | 118° |
| 2026-05-04 02:22 | 43.96589 | -88.33623 | 13905 ft | 385 kts | 118° |
| 2026-05-04 02:23 | 43.95307 | -88.30343 | 14449 ft | 388 kts | 118° |
| 2026-05-04 02:23 | 43.93590 | -88.25953 | 15194 ft | 393 kts | 118° |
| 2026-05-04 02:23 | 43.92279 | -88.22603 | 15750 ft | 397 kts | 118° |
| 2026-05-04 02:23 | 43.90956 | -88.19220 | 16312 ft | 401 kts | 118° |
| 2026-05-04 02:24 | 43.90053 | -88.16913 | 16694 ft | 404 kts | 118° |
| 2026-05-04 02:24 | 43.88683 | -88.13497 | 17251 ft | 408 kts | 123° |
| 2026-05-04 02:24 | 43.86710 | -88.10679 | 17808 ft | 410 kts | 147° |
| 2026-05-04 02:24 | 43.84246 | -88.08817 | 18371 ft | 410 kts | 155° |
| 2026-05-04 02:25 | 43.81709 | -88.06955 | 18900 ft | 415 kts | 153° |
| 2026-05-04 02:25 | 43.79173 | -88.05022 | 19471 ft | 418 kts | 153° |
| 2026-05-04 02:25 | 43.76622 | -88.03060 | 20054 ft | 421 kts | 152° |
| 2026-05-04 02:25 | 43.74054 | -88.01075 | 20608 ft | 425 kts | 152° |
| 2026-05-04 02:26 | 43.71466 | -87.99073 | 21152 ft | 428 kts | 152° |
| 2026-05-04 02:26 | 43.69679 | -87.97690 | 21519 ft | 430 kts | 152° |
| 2026-05-04 02:26 | 43.66999 | -87.95621 | 22044 ft | 434 kts | 152° |
| 2026-05-04 02:26 | 43.64352 | -87.93579 | 22557 ft | 438 kts | 152° |
| 2026-05-04 02:27 | 43.61683 | -87.91529 | 23092 ft | 441 kts | 152° |
| 2026-05-04 02:27 | 43.58989 | -87.89465 | 23581 ft | 444 kts | 152° |
| 2026-05-04 02:27 | 43.56276 | -87.87394 | 24054 ft | 448 kts | 152° |
| 2026-05-04 02:27 | 43.53538 | -87.85313 | 24507 ft | 451 kts | 152° |
| 2026-05-04 02:28 | 43.50679 | -87.83684 | 24906 ft | 453 kts | 168° |
| 2026-05-04 02:28 | 43.47566 | -87.83475 | 25373 ft | 448 kts | 190° |
| 2026-05-04 02:28 | 43.44523 | -87.84265 | 25919 ft | 444 kts | 195° |
| 2026-05-04 02:28 | 43.41488 | -87.85095 | 26422 ft | 445 kts | 194° |
| 2026-05-04 02:29 | 43.38452 | -87.85901 | 26937 ft | 444 kts | 194° |
| 2026-05-04 02:29 | 43.35416 | -87.86703 | 27456 ft | 444 kts | 194° |
| 2026-05-04 02:29 | 43.32494 | -87.87949 | 27906 ft | 437 kts | 209° |
| 2026-05-04 02:29 | 43.29810 | -87.89879 | 28392 ft | 434 kts | 214° |
| 2026-05-04 02:30 | 43.27154 | -87.91869 | 28848 ft | 435 kts | 213° |
| 2026-05-04 02:30 | 43.24489 | -87.93841 | 29320 ft | 436 kts | 213° |
| 2026-05-04 02:30 | 43.21816 | -87.95804 | 29790 ft | 436 kts | 213° |
| 2026-05-04 02:30 | 43.19147 | -87.97757 | 30041 ft | 433 kts | 213° |
| 2026-05-04 02:31 | 43.16534 | -87.99662 | 30043 ft | 417 kts | 213° |
| 2026-05-04 02:31 | 43.14037 | -88.01480 | 30029 ft | 407 kts | 213° |
| 2026-05-04 02:31 | 43.09085 | -88.05083 | 30049 ft | 401 kts | 213° |
| 2026-05-04 02:32 | 43.04171 | -88.08648 | 30047 ft | 399 kts | 213° |
| 2026-05-04 02:32 | 42.99278 | -88.12187 | 30065 ft | 396 kts | 213° |
| 2026-05-04 02:33 | 42.96832 | -88.13958 | 29578 ft | 400 kts | 213° |
| 2026-05-04 02:33 | 42.94369 | -88.15739 | 28672 ft | 401 kts | 213° |
| 2026-05-04 02:33 | 42.91911 | -88.17514 | 27822 ft | 399 kts | 213° |
| 2026-05-04 02:33 | 42.89463 | -88.19279 | 27016 ft | 396 kts | 213° |
| 2026-05-04 02:34 | 42.87026 | -88.21034 | 26235 ft | 396 kts | 213° |
| 2026-05-04 02:34 | 42.84590 | -88.22788 | 25483 ft | 399 kts | 213° |
| 2026-05-04 02:34 | 42.82055 | -88.24386 | 24739 ft | 406 kts | 202° |
| 2026-05-04 02:34 | 42.79350 | -88.25364 | 24043 ft | 409 kts | 197° |
| 2026-05-04 02:35 | 42.76581 | -88.26234 | 23332 ft | 408 kts | 197° |
| 2026-05-04 02:35 | 42.73815 | -88.27087 | 22502 ft | 407 kts | 197° |
| 2026-05-04 02:35 | 42.71061 | -88.27932 | 21692 ft | 406 kts | 194° |
| 2026-05-04 02:35 | 42.68241 | -88.28305 | 20904 ft | 409 kts | 185° |
| 2026-05-04 02:36 | 42.65397 | -88.28367 | 20145 ft | 410 kts | 185° |
| 2026-05-04 02:36 | 42.62547 | -88.28455 | 19403 ft | 410 kts | 185° |
| 2026-05-04 02:36 | 42.59696 | -88.28554 | 18677 ft | 410 kts | 185° |
| 2026-05-04 02:36 | 42.56858 | -88.28660 | 17941 ft | 406 kts | 185° |
| 2026-05-04 02:37 | 42.54049 | -88.28772 | 17108 ft | 402 kts | 185° |
| 2026-05-04 02:37 | 42.51282 | -88.28937 | 16330 ft | 394 kts | 188° |
| 2026-05-04 02:37 | 42.48572 | -88.29271 | 15659 ft | 386 kts | 189° |
| 2026-05-04 02:37 | 42.45970 | -88.29570 | 15434 ft | 367 kts | 189° |
| 2026-05-04 02:38 | 42.43542 | -88.29849 | 15415 ft | 342 kts | 189° |
| 2026-05-04 02:38 | 42.41287 | -88.30098 | 15354 ft | 314 kts | 189° |
| 2026-05-04 02:38 | 42.39164 | -88.30340 | 15266 ft | 299 kts | 190° |
| 2026-05-04 02:38 | 42.37134 | -88.30569 | 15119 ft | 288 kts | 191° |
| 2026-05-04 02:39 | 42.35170 | -88.30790 | 14961 ft | 279 kts | 191° |
| 2026-05-04 02:39 | 42.33260 | -88.30968 | 14762 ft | 273 kts | 186° |
| 2026-05-04 02:39 | 42.31370 | -88.30674 | 14536 ft | 275 kts | 169° |
| 2026-05-04 02:39 | 42.29595 | -88.29707 | 14295 ft | 277 kts | 153° |
| 2026-05-04 02:40 | 42.28049 | -88.28121 | 13859 ft | 285 kts | 135° |
| 2026-05-04 02:40 | 42.26753 | -88.26052 | 13404 ft | 293 kts | 129° |
| 2026-05-04 02:40 | 42.25452 | -88.23885 | 12933 ft | 301 kts | 131° |
| 2026-05-04 02:40 | 42.24108 | -88.21726 | 12470 ft | 307 kts | 131° |
| 2026-05-04 02:41 | 42.22713 | -88.19531 | 12007 ft | 310 kts | 132° |
| 2026-05-04 02:41 | 42.21295 | -88.17341 | 11545 ft | 311 kts | 133° |
| 2026-05-04 02:41 | 42.19807 | -88.15238 | 11080 ft | 308 kts | 142° |
| 2026-05-04 02:41 | 42.17970 | -88.13834 | 10622 ft | 303 kts | 162° |
| 2026-05-04 02:42 | 42.16002 | -88.12873 | 10177 ft | 301 kts | 164° |
| 2026-05-04 02:42 | 42.14058 | -88.11924 | 10037 ft | 289 kts | 163° |
| 2026-05-04 02:42 | 42.12188 | -88.10993 | 10038 ft | 286 kts | 163° |
| 2026-05-04 02:42 | 42.10308 | -88.10045 | 10053 ft | 291 kts | 162° |
| 2026-05-04 02:43 | 42.08407 | -88.09071 | 10072 ft | 294 kts | 162° |
| 2026-05-04 02:43 | 42.06488 | -88.08087 | 10080 ft | 296 kts | 162° |
| 2026-05-04 02:43 | 42.04586 | -88.07108 | 10059 ft | 298 kts | 162° |
| 2026-05-04 02:43 | 42.02646 | -88.06117 | 9998 ft | 298 kts | 163° |
| 2026-05-04 02:44 | 42.00713 | -88.05131 | 9994 ft | 297 kts | 162° |
| 2026-05-04 02:44 | 41.98779 | -88.04141 | 9998 ft | 297 kts | 162° |
| 2026-05-04 02:44 | 41.96849 | -88.03151 | 9990 ft | 297 kts | 162° |
| 2026-05-04 02:44 | 41.94917 | -88.02159 | 9994 ft | 298 kts | 162° |
| 2026-05-04 02:45 | 41.92992 | -88.01169 | 9986 ft | 292 kts | 162° |
| 2026-05-04 02:45 | 41.91175 | -88.00106 | 9940 ft | 280 kts | 152° |
| 2026-05-04 02:45 | 41.89736 | -87.98425 | 9907 ft | 270 kts | 129° |
| 2026-05-04 02:45 | 41.88796 | -87.96316 | 9967 ft | 259 kts | 111° |
| 2026-05-04 02:46 | 41.88365 | -87.94029 | 10011 ft | 257 kts | 93° |
| 2026-05-04 02:46 | 41.88330 | -87.91637 | 10010 ft | 256 kts | 85° |
| 2026-05-04 02:46 | 41.88368 | -87.89246 | 9981 ft | 258 kts | 86° |
| 2026-05-04 02:46 | 41.88396 | -87.86825 | 9816 ft | 260 kts | 86° |
| 2026-05-04 02:47 | 41.88413 | -87.84411 | 9671 ft | 257 kts | 87° |
| 2026-05-04 02:47 | 41.88417 | -87.82020 | 9547 ft | 255 kts | 87° |
| 2026-05-04 02:47 | 41.88410 | -87.79645 | 9406 ft | 254 kts | 88° |
| 2026-05-04 02:47 | 41.88407 | -87.77278 | 9271 ft | 254 kts | 87° |
| 2026-05-04 02:48 | 41.88405 | -87.74915 | 9129 ft | 253 kts | 87° |
| 2026-05-04 02:48 | 41.88403 | -87.72557 | 9009 ft | 252 kts | 88° |
| 2026-05-04 02:48 | 41.88398 | -87.70205 | 8861 ft | 253 kts | 88° |
| 2026-05-04 02:48 | 41.88394 | -87.67848 | 8510 ft | 258 kts | 88° |
| 2026-05-04 02:49 | 41.88388 | -87.65426 | 8163 ft | 261 kts | 88° |
| 2026-05-04 02:49 | 41.88381 | -87.62985 | 7823 ft | 262 kts | 88° |
| 2026-05-04 02:49 | 41.88374 | -87.60527 | 7483 ft | 264 kts | 88° |
| 2026-05-04 02:49 | 41.88366 | -87.58054 | 7141 ft | 266 kts | 89° |
| 2026-05-04 02:50 | 41.88488 | -87.55587 | 6779 ft | 265 kts | 74° |
| 2026-05-04 02:50 | 41.89221 | -87.53358 | 6422 ft | 260 kts | 50° |
| 2026-05-04 02:50 | 41.90462 | -87.51656 | 6087 ft | 252 kts | 29° |
| 2026-05-04 02:50 | 41.92013 | -87.50670 | 5747 ft | 243 kts | 8° |
| 2026-05-04 02:51 | 41.93656 | -87.50464 | 5432 ft | 233 kts | 349° |
| 2026-05-04 02:51 | 41.95217 | -87.50799 | 5141 ft | 229 kts | 343° |
| 2026-05-04 02:51 | 41.96728 | -87.51372 | 4844 ft | 223 kts | 330° |
| 2026-05-04 02:51 | 41.97950 | -87.52559 | 4525 ft | 214 kts | 304° |
| 2026-05-04 02:52 | 41.98434 | -87.54384 | 4216 ft | 209 kts | 270° |
| 2026-05-04 02:52 | 41.98286 | -87.56294 | 3995 ft | 201 kts | 264° |
| 2026-05-04 02:52 | 41.97990 | -87.58067 | 3753 ft | 190 kts | 253° |
| 2026-05-04 02:52 | 41.97460 | -87.59658 | 3483 ft | 185 kts | 240° |
| 2026-05-04 02:53 | 41.96736 | -87.61052 | 3209 ft | 176 kts | 249° |
| 2026-05-04 02:53 | 41.96553 | -87.62604 | 2880 ft | 165 kts | 277° |
| 2026-05-04 02:53 | 41.96632 | -87.64100 | 2624 ft | 157 kts | 274° |
| 2026-05-04 02:53 | 41.96595 | -87.65538 | 2484 ft | 150 kts | 271° |
| 2026-05-04 02:54 | 41.96574 | -87.66928 | 2540 ft | 154 kts | 273° |
| 2026-05-04 02:54 | 41.96590 | -87.68381 | 2552 ft | 156 kts | 273° |
| 2026-05-04 02:54 | 41.96589 | -87.69819 | 2591 ft | 151 kts | 273° |
| 2026-05-04 02:54 | 41.96583 | -87.71172 | 2617 ft | 141 kts | 277° |
| 2026-05-04 02:55 | 41.96588 | -87.73715 | 2419 ft | 128 kts | 277° |
| 2026-05-04 02:55 | 41.96590 | -87.74855 | 2363 ft | 120 kts | 278° |
| 2026-05-04 02:55 | 41.96588 | -87.75974 | 2314 ft | 119 kts | 277° |
| 2026-05-04 02:56 | 41.96586 | -87.77081 | 2375 ft | 115 kts | 278° |
| 2026-05-04 02:56 | 41.96584 | -87.78187 | 2391 ft | 124 kts | 275° |
| 2026-05-04 02:56 | 41.96572 | -87.79311 | 2116 ft | 114 kts | 276° |
| 2026-05-04 02:56 | 41.96601 | -87.80361 | 1948 ft | 112 kts | 276° |
| 2026-05-04 02:57 | 41.96593 | -87.81398 | 1803 ft | 110 kts | 274° |
| 2026-05-04 02:57 | 41.96586 | -87.82420 | 1659 ft | 112 kts | 272° |
| 2026-05-04 02:57 | 41.96575 | -87.83482 | 1526 ft | 118 kts | 275° |
| 2026-05-04 02:57 | 41.96591 | -87.84622 | 1351 ft | 125 kts | 276° |
| 2026-05-04 02:58 | 41.96595 | -87.85802 | 1206 ft | 127 kts | 277° |
| 2026-05-04 02:58 | 41.96604 | -87.86967 | 1080 ft | 122 kts | 263° |
| 2026-05-04 02:58 | 41.96585 | -87.88101 | 892 ft | 122 kts | 263° |
| 2026-05-04 02:58 | 41.96575 | -87.89226 | 703 ft | 118 kts | 267° |
| 2026-05-04 02:59 | 41.96570 | -87.90217 | 664 ft | 89 kts | 268° |
| 2026-05-04 02:59 | 41.96575 | -87.90875 | 667 ft | 59 kts | 268° |
| 2026-05-04 02:59 | 41.96593 | -87.91282 | 666 ft | 36 kts | 290° |
| 2026-05-04 02:59 | 41.96698 | -87.91529 | 666 ft | 16 kts | 330° |
| 2026-05-04 03:00 | 41.96710 | -87.91537 | 667 ft | 0 kts | 336° |
| 2026-05-04 03:00 | 41.96714 | -87.91539 | 667 ft | 3 kts | 332° |
| 2026-05-04 03:01 | 41.96732 | -87.91588 | 665 ft | 10 kts | 279° |
| 2026-05-04 03:01 | 41.96737 | -87.91736 | 667 ft | 21 kts | 268° |
| 2026-05-04 03:01 | 41.96735 | -87.91963 | 667 ft | 23 kts | 272° |
| 2026-05-04 03:01 | 41.96801 | -87.92083 | 666 ft | 19 kts | 0° |
| 2026-05-04 03:02 | 41.96946 | -87.92082 | 666 ft | 22 kts | 359° |
| 2026-05-04 03:02 | 41.97097 | -87.92081 | 666 ft | 13 kts | 12° |
| 2026-05-04 03:02 | 41.97148 | -87.91985 | 667 ft | 20 kts | 88° |
| 2026-05-04 03:02 | 41.97150 | -87.91785 | 667 ft | 24 kts | 90° |
| 2026-05-04 03:03 | 41.97159 | -87.91543 | 667 ft | 27 kts | 91° |
| 2026-05-04 03:03 | 41.97174 | -87.91293 | 667 ft | 27 kts | 61° |
| 2026-05-04 03:03 | 41.97256 | -87.91129 | 667 ft | 14 kts | 69° |
| 2026-05-04 03:03 | 41.97288 | -87.91003 | 667 ft | 17 kts | 66° |
| 2026-05-04 03:04 | 41.97250 | -87.90898 | 667 ft | 16 kts | 136° |
| 2026-05-04 03:04 | 41.97165 | -87.90751 | 667 ft | 22 kts | 116° |
| 2026-05-04 03:04 | 41.97150 | -87.90581 | 666 ft | 12 kts | 84° |
| 2026-05-04 03:04 | 41.97199 | -87.90533 | 666 ft | 10 kts | 328° |
| 2026-05-04 03:05 | 41.97220 | -87.90603 | 667 ft | 6 kts | 282° |
| 2026-05-04 03:05 | 41.97222 | -87.90648 | 667 ft | 7 kts | 270° |
| 2026-05-04 03:05 | 41.97234 | -87.90695 | 665 ft | 3 kts | 341° |
| 2026-05-04 03:05 | 41.97259 | -87.90685 | 667 ft | 1 kts | 41° |
| 2026-05-04 03:06 | 41.97274 | -87.90665 | 667 ft | 2 kts | 47° |
| 2026-05-04 03:06 | 41.97281 | -87.90654 | 667 ft | 1 kts | 48° |